Time;durP1;ratioP1;P1;durP2;ratioP2;P2;SDS_P1;SDS_P2;PMS_P1;PMS_P2;Temp;Humidity;BMP_temperature;BMP_pressure;BME280_temperature;BME280_humidity;BME280_pressure;Samples;Min_cycle;Max_cycle;Signal;HPM_P1;HPM_P2
2022/05/21 00:02:02;;;;;;;14.02;9.55;;;12.60;99.90;;;;;;5093465;28;20044;-67
2022/05/21 00:04:28;;;;;;;12.38;9.18;;;12.60;99.90;;;;;;5093341;28;20050;-67
2022/05/21 00:06:55;;;;;;;18.17;10.10;;;12.60;99.90;;;;;;5093142;28;20484;-67
2022/05/21 00:09:20;;;;;;;17.65;10.35;;;12.70;99.90;;;;;;5092189;28;20692;-67
2022/05/21 00:11:46;;;;;;;16.08;10.25;;;12.60;99.90;;;;;;5093186;28;20048;-67
2022/05/21 00:14:12;;;;;;;14.80;9.75;;;12.60;99.90;;;;;;5093310;28;20064;-67
2022/05/21 00:16:38;;;;;;;16.77;10.43;;;12.60;99.90;;;;;;5093288;28;20594;-67
2022/05/21 00:19:03;;;;;;;15.65;10.63;;;12.60;99.90;;;;;;5091410;28;20122;-67
2022/05/21 00:21:29;;;;;;;18.75;10.85;;;12.50;99.90;;;;;;5092946;28;20040;-67
2022/05/21 00:23:55;;;;;;;24.13;12.05;;;12.50;99.90;;;;;;5093148;28;20136;-67
2022/05/21 00:26:21;;;;;;;16.90;11.10;;;12.60;99.90;;;;;;5091631;28;20063;-66
2022/05/21 00:28:49;;;;;;;17.88;10.95;;;12.50;99.90;;;;;;5092573;28;20488;-67
2022/05/21 00:31:16;;;;;;;20.88;11.80;;;12.50;99.90;;;;;;5092164;28;20044;-67
2022/05/21 00:33:43;;;;;;;18.15;11.40;;;12.60;99.90;;;;;;5092826;28;20040;-67
2022/05/21 00:36:09;;;;;;;14.50;11.00;;;12.50;99.90;;;;;;5092533;28;20036;-67
2022/05/21 00:38:36;;;;;;;22.98;11.63;;;12.50;99.90;;;;;;5092307;28;20480;-67
2022/05/21 00:41:02;;;;;;;19.15;11.57;;;12.40;99.90;;;;;;5092668;28;20036;-67
2022/05/21 00:43:34;;;;;;;18.55;11.45;;;12.40;99.90;;;;;;5092470;28;20504;-67
2022/05/21 00:45:59;;;;;;;15.90;11.13;;;12.40;99.90;;;;;;5092553;28;20555;-67
2022/05/21 00:48:26;;;;;;;20.15;11.48;;;12.40;99.90;;;;;;5092215;28;20118;-67
2022/05/21 00:50:52;;;;;;;19.85;11.38;;;12.40;99.90;;;;;;5092495;28;20128;-67
2022/05/21 00:53:18;;;;;;;17.17;11.15;;;12.40;99.90;;;;;;5092516;28;20052;-67
2022/05/21 00:55:44;;;;;;;18.50;11.85;;;12.30;99.90;;;;;;5092488;28;20040;-67
2022/05/21 01:00:57;;;;;;;15.90;11.68;;;12.30;99.90;;;;;;5092092;28;20043;-67
2022/05/21 01:03:26;;;;;;;18.60;13.23;;;12.40;99.90;;;;;;5092109;28;20047;-67
2022/05/21 01:05:51;;;;;;;24.70;13.63;;;12.40;99.90;;;;;;5092350;28;20040;-67
2022/05/21 01:08:17;;;;;;;27.55;14.15;;;12.40;99.90;;;;;;5092033;28;20048;-67
2022/05/21 01:10:50;;;;;;;29.08;14.98;;;12.30;99.90;;;;;;5091954;28;20089;-67
2022/05/21 01:13:19;;;;;;;21.95;14.68;;;12.40;99.90;;;;;;5092087;28;20040;-67
2022/05/21 01:15:49;;;;;;;24.85;15.88;;;12.40;99.90;;;;;;5092039;28;20424;-67
2022/05/21 01:18:15;;;;;;;26.58;17.45;;;12.40;99.90;;;;;;5091946;28;20690;-67
2022/05/21 01:20:47;;;;;;;25.58;16.98;;;12.40;99.90;;;;;;5091742;28;20042;-67
2022/05/21 01:23:15;;;;;;;26.88;16.85;;;12.40;99.90;;;;;;5092002;28;20039;-67
2022/05/21 01:25:41;;;;;;;26.55;17.83;;;12.50;99.90;;;;;;5091854;28;20044;-67
2022/05/21 01:28:11;;;;;;;29.70;18.23;;;12.50;99.90;;;;;;5091685;28;20044;-67
2022/05/21 01:30:43;;;;;;;30.05;18.23;;;12.50;99.90;;;;;;5091572;28;20054;-67
2022/05/21 01:33:12;;;;;;;28.77;19.13;;;12.50;99.90;;;;;;5091780;28;20035;-67
2022/05/21 01:35:40;;;;;;;30.98;18.50;;;12.60;99.90;;;;;;5091622;28;20032;-67
2022/05/21 01:38:07;;;;;;;31.63;19.40;;;12.50;99.90;;;;;;5091566;28;20063;-67
2022/05/21 01:40:34;;;;;;;30.33;19.17;;;12.50;99.90;;;;;;5089722;28;20044;-67
2022/05/21 01:45:44;;;;;;;29.70;19.20;;;12.50;99.90;;;;;;5091612;28;20131;-67
2022/05/21 01:48:10;;;;;;;28.20;19.65;;;12.50;99.90;;;;;;5091372;28;20515;-67
2022/05/21 01:50:37;;;;;;;28.73;20.15;;;12.50;99.90;;;;;;5089891;28;20031;-67
2022/05/21 01:53:03;;;;;;;32.88;20.67;;;12.60;99.90;;;;;;5091197;28;20119;-67
2022/05/21 01:55:29;;;;;;;34.13;20.27;;;12.60;99.90;;;;;;5089904;28;20511;-67
2022/05/21 01:57:54;;;;;;;35.03;21.98;;;12.70;99.90;;;;;;5091353;28;20036;-67
2022/05/21 02:00:20;;;;;;;34.42;22.05;;;12.60;99.90;;;;;;5090809;28;20408;-67
2022/05/21 02:02:45;;;;;;;36.25;23.25;;;12.60;99.90;;;;;;5091201;28;20040;-67
2022/05/21 02:05:12;;;;;;;37.00;23.90;;;12.60;99.90;;;;;;5091079;28;20047;-67
2022/05/21 02:07:38;;;;;;;37.00;22.55;;;12.60;99.90;;;;;;5091097;28;20135;-67
2022/05/21 02:10:05;;;;;;;33.60;23.35;;;12.60;99.90;;;;;;5090867;28;20198;-67
2022/05/21 02:12:31;;;;;;;37.78;24.55;;;12.70;99.90;;;;;;5091088;28;20040;-67
2022/05/21 02:14:57;;;;;;;36.65;23.48;;;12.70;99.90;;;;;;5089690;28;20043;-67
2022/05/21 02:17:23;;;;;;;36.60;24.38;;;12.60;99.90;;;;;;5090996;28;20044;-67
2022/05/21 02:19:48;;;;;;;38.42;24.98;;;12.60;99.90;;;;;;5090674;28;20120;-67
2022/05/21 02:22:15;;;;;;;42.00;26.70;;;12.60;99.90;;;;;;5090870;28;20575;-67
2022/05/21 02:24:41;;;;;;;41.35;25.75;;;12.60;99.90;;;;;;5091111;28;20071;-67
2022/05/21 02:27:14;;;;;;;38.75;26.02;;;12.70;99.90;;;;;;5090969;28;20144;-67
2022/05/21 02:29:41;;;;;;;42.17;27.58;;;12.70;99.90;;;;;;5090635;28;20044;-67
2022/05/21 02:32:07;;;;;;;41.90;28.13;;;12.70;99.90;;;;;;5090845;28;20055;-67
2022/05/21 02:34:33;;;;;;;42.35;25.08;;;12.70;99.90;;;;;;5089530;28;20153;-67
2022/05/21 02:39:43;;;;;;;45.63;27.27;;;12.70;99.90;;;;;;5090609;28;20056;-67
2022/05/21 02:42:43;;;;;;;38.58;25.65;;;12.80;99.90;;;;;;5090908;28;20114;-67
2022/05/21 02:44:55;;;;;;;35.33;25.50;;;12.80;99.90;;;;;;5090652;28;20092;-67
2022/05/21 02:47:21;;;;;;;40.25;25.90;;;12.80;99.90;;;;;;5090600;28;20043;-67
2022/05/21 02:49:47;;;;;;;34.17;23.98;;;12.90;99.90;;;;;;5090537;28;20043;-67
2022/05/21 02:52:13;;;;;;;35.45;24.40;;;12.80;99.90;;;;;;5090715;28;20050;-67
2022/05/21 02:54:38;;;;;;;38.42;24.08;;;12.90;99.90;;;;;;5094750;28;20107;-67
2022/05/21 02:57:07;;;;;;;37.33;23.70;;;12.90;99.90;;;;;;5094733;28;20081;-67
2022/05/21 02:59:33;;;;;;;38.50;24.33;;;12.90;99.90;;;;;;5094169;28;20435;-67
2022/05/21 03:01:58;;;;;;;42.25;24.60;;;12.90;99.90;;;;;;5094453;28;20111;-67
2022/05/21 03:04:24;;;;;;;37.00;23.60;;;12.90;99.90;;;;;;5094630;28;20389;-67
2022/05/21 03:06:49;;;;;;;37.83;24.58;;;13.00;99.90;;;;;;5094617;28;20509;-67
2022/05/21 03:11:59;;;;;;;36.40;20.85;;;13.00;99.90;;;;;;5094369;28;20512;-67
2022/05/21 03:14:25;;;;;;;33.83;23.00;;;12.90;99.90;;;;;;5094189;28;20072;-67
2022/05/21 03:16:56;;;;;;;40.85;23.13;;;13.00;99.90;;;;;;5094290;28;20047;-67
2022/05/21 03:19:22;;;;;;;36.42;22.08;;;13.00;99.90;;;;;;5094131;28;20074;-67
2022/05/21 03:21:47;;;;;;;39.95;21.35;;;13.00;99.90;;;;;;5094272;28;20079;-67
2022/05/21 03:24:13;;;;;;;36.95;22.58;;;13.00;99.90;;;;;;5094100;28;20048;-67
2022/05/21 03:26:39;;;;;;;34.88;22.08;;;13.00;99.90;;;;;;5094139;28;20032;-67
2022/05/21 03:29:04;;;;;;;28.85;20.13;;;13.00;99.90;;;;;;5093501;28;20039;-67
2022/05/21 03:31:30;;;;;;;28.90;19.02;;;13.00;99.90;;;;;;5092535;28;20040;-67
2022/05/21 03:33:55;;;;;;;32.05;20.15;;;13.00;99.90;;;;;;5090920;28;20036;-67
2022/05/21 03:36:21;;;;;;;29.85;19.40;;;13.00;99.90;;;;;;5091151;28;20036;-67
2022/05/21 03:38:46;;;;;;;33.83;19.60;;;13.00;99.90;;;;;;5093309;28;20115;-67
2022/05/21 03:41:12;;;;;;;34.30;17.63;;;13.00;99.90;;;;;;5092725;28;20048;-67
2022/05/21 03:43:38;;;;;;;28.65;17.08;;;13.00;99.90;;;;;;5092497;28;20492;-67
2022/05/21 03:46:04;;;;;;;22.33;16.98;;;13.00;99.90;;;;;;5093861;28;20036;-67
2022/05/21 03:48:29;;;;;;;27.10;16.85;;;13.00;99.90;;;;;;5093000;28;20032;-67
2022/05/21 03:50:55;;;;;;;30.13;16.45;;;13.00;99.90;;;;;;5093719;28;20039;-67
2022/05/21 03:53:20;;;;;;;32.17;16.25;;;13.00;99.90;;;;;;5093615;28;20040;-67
2022/05/21 03:55:46;;;;;;;27.83;15.55;;;13.00;99.90;;;;;;5093611;28;20032;-67
2022/05/21 03:58:13;;;;;;;28.15;15.48;;;13.00;99.90;;;;;;5093409;28;20039;-67
2022/05/21 04:00:40;;;;;;;31.80;16.05;;;13.10;99.90;;;;;;5093075;28;20040;-67
2022/05/21 04:03:07;;;;;;;22.88;14.15;;;13.10;99.90;;;;;;5093591;28;20044;-67
2022/05/21 04:05:33;;;;;;;30.27;15.25;;;13.10;99.90;;;;;;5092318;28;20078;-67
2022/05/21 04:07:58;;;;;;;33.55;14.25;;;13.10;99.90;;;;;;5093296;28;20040;-67
2022/05/21 04:10:25;;;;;;;23.20;13.73;;;13.10;99.90;;;;;;5092894;28;20038;-67
2022/05/21 04:12:51;;;;;;;27.83;13.27;;;13.10;99.90;;;;;;5091807;28;20492;-67
2022/05/21 04:15:17;;;;;;;27.73;14.27;;;13.10;99.90;;;;;;5093283;28;20038;-68
2022/05/21 04:17:42;;;;;;;25.15;13.50;;;13.10;99.90;;;;;;5093035;28;20040;-67
2022/05/21 04:20:11;;;;;;;29.77;13.27;;;13.10;99.90;;;;;;5092739;28;20039;-67
2022/05/21 04:22:36;;;;;;;23.08;12.32;;;13.10;99.90;;;;;;5093014;28;20389;-68
2022/05/21 04:25:05;;;;;;;30.67;14.00;;;13.10;99.90;;;;;;5092921;28;20044;-67
2022/05/21 04:27:30;;;;;;;29.40;14.38;;;13.10;99.90;;;;;;5091868;28;20401;-67
2022/05/21 04:29:56;;;;;;;26.23;12.45;;;13.10;99.90;;;;;;5092687;28;20031;-68
2022/05/21 04:32:21;;;;;;;33.60;13.13;;;13.10;99.90;;;;;;5092805;28;20115;-67
2022/05/21 04:34:47;;;;;;;24.58;12.48;;;13.20;99.90;;;;;;5092737;28;20063;-68
2022/05/21 04:37:12;;;;;;;30.58;12.48;;;13.20;99.90;;;;;;5092626;28;20082;-67
2022/05/21 04:39:38;;;;;;;25.48;12.07;;;13.20;99.90;;;;;;5092357;28;20032;-67
2022/05/21 04:42:04;;;;;;;23.02;13.13;;;13.20;99.90;;;;;;5092572;28;20038;-68
2022/05/21 04:44:31;;;;;;;28.63;12.45;;;13.20;99.90;;;;;;5092738;28;20381;-68
2022/05/21 04:46:58;;;;;;;30.17;12.50;;;13.20;99.90;;;;;;5092685;28;20387;-68
2022/05/21 04:49:24;;;;;;;23.05;11.02;;;13.20;99.90;;;;;;5092261;28;20047;-68
2022/05/21 04:51:50;;;;;;;25.05;11.52;;;13.20;99.90;;;;;;5092248;28;20032;-67
2022/05/21 04:54:15;;;;;;;22.88;10.88;;;13.30;99.90;;;;;;5092317;28;20046;-67
2022/05/21 04:56:41;;;;;;;23.70;11.00;;;13.30;99.90;;;;;;5092237;28;20040;-68
2022/05/21 04:59:08;;;;;;;16.40;9.05;;;13.30;99.90;;;;;;5091910;28;20073;-68
2022/05/21 05:01:35;;;;;;;29.00;9.88;;;13.30;99.90;;;;;;5092446;28;20078;-67
2022/05/21 05:04:00;;;;;;;27.10;9.82;;;13.30;99.90;;;;;;5092305;28;20388;-68
2022/05/21 05:06:26;;;;;;;19.92;8.77;;;13.40;99.90;;;;;;5091987;28;20069;-68
2022/05/21 05:08:52;;;;;;;21.95;9.25;;;13.40;99.90;;;;;;5091644;28;20119;-68
2022/05/21 05:11:17;;;;;;;23.42;9.02;;;13.40;99.90;;;;;;5092273;28;20036;-67
2022/05/21 05:13:43;;;;;;;21.38;9.02;;;13.40;99.90;;;;;;5091954;28;20076;-67
2022/05/21 05:16:08;;;;;;;26.63;9.35;;;13.50;99.90;;;;;;5091861;28;20036;-68
2022/05/21 05:18:34;;;;;;;22.67;8.85;;;13.50;99.90;;;;;;5091717;28;20036;-68
2022/05/21 05:21:01;;;;;;;18.50;7.65;;;13.50;99.90;;;;;;5090576;28;20044;-68
2022/05/21 05:23:27;;;;;;;24.33;7.50;;;13.60;99.90;;;;;;5091786;28;20044;-68
2022/05/21 05:25:53;;;;;;;14.75;5.50;;;13.60;99.90;;;;;;5091801;28;20147;-68
2022/05/21 05:28:22;;;;;;;23.95;5.10;;;13.60;99.90;;;;;;5091787;28;20051;-67
2022/05/21 05:30:48;;;;;;;17.40;4.70;;;13.70;99.90;;;;;;5091420;28;20672;-68
2022/05/21 05:33:17;;;;;;;21.02;4.50;;;13.70;99.90;;;;;;5091586;28;20040;-68
2022/05/21 05:35:43;;;;;;;20.83;4.20;;;13.80;99.90;;;;;;5091695;28;20465;-68
2022/05/21 05:38:11;;;;;;;17.10;4.28;;;14.00;99.90;;;;;;5090179;28;20408;-67
2022/05/21 05:40:39;;;;;;;22.40;3.40;;;14.00;99.90;;;;;;5091423;28;20036;-67
2022/05/21 05:43:05;;;;;;;11.57;3.63;;;14.10;99.90;;;;;;5091407;28;20512;-67
2022/05/21 05:45:31;;;;;;;20.55;3.63;;;14.20;99.90;;;;;;5091532;28;20043;-67
2022/05/21 05:47:57;;;;;;;18.05;3.63;;;14.30;99.90;;;;;;5091429;28;20089;-67
2022/05/21 05:50:23;;;;;;;14.13;4.00;;;14.30;99.90;;;;;;5091017;28;20047;-67
2022/05/21 05:52:49;;;;;;;19.25;4.00;;;14.20;99.90;;;;;;5091109;28;20036;-67
2022/05/21 05:55:14;;;;;;;14.95;3.25;;;14.20;99.90;;;;;;5091568;28;20075;-67
2022/05/21 05:57:40;;;;;;;18.08;3.88;;;14.20;99.90;;;;;;5091375;28;20036;-67
2022/05/21 06:00:07;;;;;;;20.33;3.90;;;14.20;99.90;;;;;;5090906;28;20072;-67
2022/05/21 06:05:19;;;;;;;13.75;3.65;;;14.60;99.90;;;;;;5091031;28;20500;-67
2022/05/21 06:07:53;;;;;;;16.27;3.42;;;14.70;99.90;;;;;;5091303;28;20172;-68
2022/05/21 06:10:32;;;;;;;12.55;3.30;;;14.70;99.90;;;;;;5090756;28;20051;-68
2022/05/21 06:12:59;;;;;;;16.85;4.00;;;14.90;99.90;;;;;;5090988;28;20122;-67
2022/05/21 06:15:25;;;;;;;17.65;3.38;;;14.80;99.90;;;;;;5091014;28;20373;-67
2022/05/21 06:17:52;;;;;;;15.40;3.40;;;14.80;99.90;;;;;;5090902;28;20046;-67
2022/05/21 06:20:21;;;;;;;10.38;3.50;;;15.10;99.90;;;;;;5090644;28;20412;-67
2022/05/21 06:22:46;;;;;;;14.05;3.35;;;15.00;99.90;;;;;;5091087;28;20408;-67
2022/05/21 06:25:17;;;;;;;14.60;3.55;;;15.00;99.90;;;;;;5091012;28;20044;-67
2022/05/21 06:27:45;;;;;;;20.55;3.78;;;15.10;99.90;;;;;;5090401;28;20048;-67
2022/05/21 06:30:11;;;;;;;17.75;3.15;;;15.20;99.90;;;;;;5090502;28;20055;-67
2022/05/21 06:32:36;;;;;;;18.85;3.75;;;15.20;99.90;;;;;;5091038;28;20048;-67
2022/05/21 06:35:04;;;;;;;21.70;3.75;;;15.40;99.90;;;;;;5090933;28;20153;-67
2022/05/21 06:37:29;;;;;;;14.75;3.38;;;15.40;99.90;;;;;;5090886;28;20047;-67
2022/05/21 06:39:55;;;;;;;14.32;2.97;;;15.40;99.90;;;;;;5090614;28;20036;-67
2022/05/21 06:42:20;;;;;;;11.93;2.67;;;15.40;99.90;;;;;;5090793;28;20122;-67
2022/05/21 06:44:46;;;;;;;13.07;3.58;;;15.60;99.90;;;;;;5090812;28;20131;-67
2022/05/21 06:47:12;;;;;;;19.60;3.20;;;15.50;99.90;;;;;;5090716;28;20052;-67
2022/05/21 06:49:37;;;;;;;10.68;2.88;;;15.70;99.90;;;;;;5090464;28;20040;-67
2022/05/21 06:52:04;;;;;;;16.42;2.95;;;15.60;99.90;;;;;;5090776;28;20457;-67
2022/05/21 06:54:29;;;;;;;12.20;2.95;;;15.60;99.90;;;;;;5090812;28;20074;-67
2022/05/21 06:56:55;;;;;;;12.23;3.17;;;15.60;99.90;;;;;;5090647;28;20465;-67
2022/05/21 06:59:21;;;;;;;16.33;3.50;;;15.50;99.90;;;;;;5090104;28;20115;-68
2022/05/21 07:01:47;;;;;;;19.80;3.35;;;15.70;99.90;;;;;;5090870;28;20489;-67
2022/05/21 07:04:14;;;;;;;14.18;2.92;;;15.70;99.90;;;;;;5090575;28;20044;-67
2022/05/21 07:09:25;;;;;;;12.25;2.70;;;15.50;99.90;;;;;;5088697;28;20048;-67
2022/05/21 07:11:51;;;;;;;14.13;3.33;;;15.70;99.90;;;;;;5090322;28;20040;-67
2022/05/21 07:14:17;;;;;;;10.90;2.53;;;15.80;99.90;;;;;;5090700;28;20047;-67
2022/05/21 07:16:43;;;;;;;15.18;2.88;;;16.00;99.90;;;;;;5090582;28;20047;-67
2022/05/21 07:19:09;;;;;;;11.57;3.50;;;15.90;99.90;;;;;;5090204;28;20036;-68
2022/05/21 07:21:35;;;;;;;12.75;2.90;;;15.90;99.90;;;;;;5090474;28;20039;-67
2022/05/21 07:24:01;;;;;;;10.77;3.63;;;16.10;99.90;;;;;;5090318;28;20070;-67
2022/05/21 07:26:28;;;;;;;16.10;2.95;;;16.10;99.90;;;;;;5090162;28;20032;-67
2022/05/21 07:28:53;;;;;;;15.40;2.72;;;16.20;99.90;;;;;;5090175;28;20047;-67
2022/05/21 07:31:19;;;;;;;10.02;2.90;;;16.30;99.90;;;;;;5090389;28;20036;-67
2022/05/21 07:33:45;;;;;;;14.68;3.05;;;16.30;99.90;;;;;;5090208;28;20040;-67
2022/05/21 07:36:10;;;;;;;11.65;2.40;;;16.30;99.90;;;;;;5090253;28;20034;-67
2022/05/21 07:38:37;;;;;;;11.23;2.10;;;16.40;99.90;;;;;;5090333;28;20072;-67
2022/05/21 07:41:02;;;;;;;10.30;2.53;;;16.40;99.90;;;;;;5092595;28;20504;-67
2022/05/21 07:43:30;;;;;;;10.35;2.78;;;16.40;99.90;;;;;;5092605;28;20132;-67
2022/05/21 07:46:00;;;;;;;13.30;2.55;;;16.50;99.90;;;;;;5093890;28;20048;-67
2022/05/21 07:48:26;;;;;;;7.00;2.15;;;16.50;99.90;;;;;;5093525;28;20498;-67
2022/05/21 07:50:55;;;;;;;13.45;2.70;;;16.60;99.90;;;;;;5093625;28;20092;-67
2022/05/21 07:53:24;;;;;;;10.07;2.50;;;16.70;99.90;;;;;;5093490;28;20039;-67
2022/05/21 07:55:51;;;;;;;12.95;2.33;;;16.80;99.90;;;;;;5093736;28;20044;-67
2022/05/21 07:58:18;;;;;;;13.23;2.47;;;16.90;99.90;;;;;;5093566;28;20036;-67
2022/05/21 08:00:44;;;;;;;15.05;2.30;;;16.90;99.90;;;;;;5093145;28;20039;-68
2022/05/21 08:03:09;;;;;;;8.00;2.00;;;16.80;99.90;;;;;;5093424;28;20411;-67
2022/05/21 08:05:36;;;;;;;14.93;3.03;;;16.90;99.90;;;;;;5093209;28;20044;-67
2022/05/21 08:08:03;;;;;;;8.30;2.30;;;16.90;99.90;;;;;;5093228;28;20044;-67
2022/05/21 08:10:28;;;;;;;13.00;3.90;;;16.80;99.90;;;;;;5093299;28;20053;-67
2022/05/21 08:12:54;;;;;;;15.00;2.53;;;16.80;99.90;;;;;;5093146;28;20040;-67
2022/05/21 08:15:21;;;;;;;12.43;3.13;;;16.70;99.90;;;;;;5093086;28;20082;-67
2022/05/21 08:17:47;;;;;;;10.10;2.45;;;16.70;99.90;;;;;;5093231;28;20085;-67
2022/05/21 08:20:13;;;;;;;10.40;3.28;;;16.50;99.90;;;;;;5092909;28;20397;-67
2022/05/21 08:28:08;;;;;;;12.07;2.47;;;16.30;99.90;;;;;;5093047;28;20048;-67
2022/05/21 08:30:34;;;;;;;13.38;2.75;;;16.20;99.90;;;;;;5092527;28;20040;-67
2022/05/21 08:33:01;;;;;;;13.75;3.63;;;16.10;99.90;;;;;;5092740;28;20036;-67
2022/05/21 08:35:27;;;;;;;10.30;1.98;;;16.20;99.90;;;;;;5092617;28;20035;-67
2022/05/21 08:37:53;;;;;;;11.35;2.20;;;16.40;99.90;;;;;;5092729;28;20040;-67
2022/05/21 08:40:19;;;;;;;12.48;2.70;;;16.50;99.90;;;;;;5092436;28;20042;-67
2022/05/21 08:42:55;;;;;;;8.88;2.10;;;16.70;99.90;;;;;;5092725;28;20040;-67
2022/05/21 08:45:24;;;;;;;11.65;2.30;;;16.80;99.90;;;;;;5092678;28;20120;-67
2022/05/21 08:48:00;;;;;;;9.13;1.90;;;16.90;99.90;;;;;;5092513;28;20044;-67
2022/05/21 08:50:32;;;;;;;13.93;2.08;;;17.00;99.90;;;;;;5091704;28;20543;-67
2022/05/21 08:53:00;;;;;;;10.53;1.80;;;17.20;99.90;;;;;;5092476;28;20039;-67
2022/05/21 08:55:34;;;;;;;10.63;2.25;;;17.10;99.90;;;;;;5092408;28;20104;-67
2022/05/21 08:58:21;;;;;;;8.93;2.15;;;17.10;99.90;;;;;;5092295;28;20043;-67
2022/05/21 09:00:48;;;;;;;10.55;2.22;;;17.10;99.90;;;;;;5091980;28;20047;-67
2022/05/21 09:03:20;;;;;;;13.25;2.17;;;17.20;99.90;;;;;;5092348;28;20412;-67
2022/05/21 09:06:03;;;;;;;12.65;2.10;;;17.10;99.90;;;;;;5092130;28;20040;-67
2022/05/21 09:08:48;;;;;;;7.72;1.65;;;16.90;99.90;;;;;;5073502;28;20143;-67
2022/05/21 09:11:34;;;;;;;9.30;1.85;;;16.90;99.90;;;;;;5092421;28;20086;-67
2022/05/21 09:14:26;;;;;;;10.40;2.40;;;17.00;99.90;;;;;;5092212;28;20062;-67
2022/05/21 09:16:57;;;;;;;13.88;2.47;;;16.90;99.90;;;;;;5088799;28;20048;-67
2022/05/21 09:19:40;;;;;;;10.52;1.92;;;17.00;99.90;;;;;;5091903;28;20043;-67
2022/05/21 09:22:15;;;;;;;12.93;2.50;;;17.20;99.90;;;;;;5092163;28;20044;-67
2022/05/21 09:24:48;;;;;;;13.52;2.45;;;17.40;99.90;;;;;;5091880;28;20040;-67
2022/05/21 09:27:33;;;;;;;8.85;2.00;;;17.40;99.90;;;;;;5091780;28;20122;-67
2022/05/21 09:30:20;;;;;;;9.35;2.30;;;17.20;99.90;;;;;;5091287;28;20040;-67
2022/05/21 09:32:51;;;;;;;7.15;2.25;;;17.20;99.90;;;;;;5091675;28;20040;-67
2022/05/21 09:35:20;;;;;;;5.72;1.75;;;17.30;99.90;;;;;;5091590;28;20032;-67
2022/05/21 09:37:46;;;;;;;12.80;2.05;;;17.40;99.90;;;;;;5091515;28;20494;-67
2022/05/21 09:40:31;;;;;;;6.65;2.00;;;17.50;99.90;;;;;;5091438;28;20028;-67
2022/05/21 09:45:43;;;;;;;8.45;1.90;;;17.50;99.90;;;;;;5091539;28;20127;-67
2022/05/21 09:48:08;;;;;;;5.68;1.50;;;17.40;99.90;;;;;;5090038;28;20048;-67
2022/05/21 09:50:59;;;;;;;9.20;2.00;;;17.40;99.90;;;;;;5091127;28;20046;-67
2022/05/21 09:53:29;;;;;;;7.53;1.73;;;17.40;99.90;;;;;;5091388;28;20111;-67
2022/05/21 09:56:02;;;;;;;9.00;2.00;;;17.40;99.90;;;;;;5091344;28;20036;-67
2022/05/21 09:58:34;;;;;;;9.95;2.28;;;17.40;99.90;;;;;;5090910;28;20040;-68
2022/05/21 10:01:00;;;;;;;10.23;1.77;;;17.40;99.90;;;;;;5091154;28;20032;-67
2022/05/21 10:03:37;;;;;;;5.57;1.90;;;17.40;99.90;;;;;;5090300;28;20051;-67
2022/05/21 10:06:28;;;;;;;9.75;2.20;;;17.30;99.90;;;;;;5091259;28;20052;-67
2022/05/21 10:11:57;;;;;;;9.98;2.10;;;17.20;99.90;;;;;;5091308;28;20060;-67
2022/05/21 10:14:40;;;;;;;8.93;1.73;;;17.30;99.90;;;;;;5091263;28;20032;-67
2022/05/21 10:17:16;;;;;;;10.02;2.10;;;17.30;99.90;;;;;;5091054;28;20036;-67
2022/05/21 10:20:28;;;;;;;9.23;1.80;;;17.30;99.90;;;;;;5090944;28;20044;-67
2022/05/21 10:23:13;;;;;;;12.50;1.88;;;17.40;99.90;;;;;;5063110;28;20054;-67
2022/05/21 10:26:09;;;;;;;7.25;1.33;;;17.30;99.90;;;;;;5090897;28;20044;-67
2022/05/21 10:28:40;;;;;;;7.00;1.40;;;17.30;99.90;;;;;;5090711;28;20051;-67
2022/05/21 10:31:19;;;;;;;9.00;1.80;;;17.40;99.90;;;;;;5090826;28;20194;-68
2022/05/21 10:33:45;;;;;;;9.45;1.70;;;17.50;99.90;;;;;;5090758;28;20040;-67
2022/05/21 10:36:36;;;;;;;6.93;1.45;;;17.80;99.90;;;;;;5090875;28;20036;-67
2022/05/21 10:39:02;;;;;;;9.73;1.50;;;17.90;99.90;;;;;;5090643;28;20032;-67
2022/05/21 10:42:04;;;;;;;8.75;1.85;;;18.00;99.90;;;;;;5090710;28;20048;-67
2022/05/21 10:44:52;;;;;;;6.80;1.57;;;18.10;99.90;;;;;;5090691;28;20042;-67
2022/05/21 10:47:23;;;;;;;7.70;1.50;;;18.20;99.90;;;;;;5090842;28;20308;-67
2022/05/21 10:50:26;;;;;;;14.70;1.73;;;18.30;99.90;;;;;;5090409;28;20040;-67
2022/05/21 10:53:01;;;;;;;9.85;2.13;;;18.40;99.90;;;;;;5090676;28;20071;-67
2022/05/21 10:55:55;;;;;;;8.75;1.70;;;18.50;99.90;;;;;;5090850;28;20047;-67
2022/05/21 10:58:56;;;;;;;8.10;1.60;;;18.50;99.90;;;;;;5090706;28;20040;-68
2022/05/21 11:01:49;;;;;;;6.10;1.42;;;18.60;99.90;;;;;;5028033;28;20127;-68
2022/05/21 11:04:42;;;;;;;6.60;1.35;;;18.70;99.90;;;;;;5088837;28;20512;-67
2022/05/21 11:07:25;;;;;;;6.15;1.55;;;18.60;99.90;;;;;;5090597;28;20040;-67
2022/05/21 11:10:15;;;;;;;6.80;1.35;;;18.40;99.90;;;;;;5090440;28;20028;-67
2022/05/21 11:12:54;;;;;;;7.05;1.52;;;18.40;99.90;;;;;;5090309;28;20508;-68
2022/05/21 11:15:48;;;;;;;7.85;1.30;;;18.50;99.90;;;;;;5093809;28;20065;-68
2022/05/21 11:18:36;;;;;;;7.95;1.35;;;18.50;99.90;;;;;;5086496;28;20407;-67
2022/05/21 11:21:12;;;;;;;8.70;1.42;;;18.70;99.90;;;;;;5094215;28;20142;-67
2022/05/21 11:24:01;;;;;;;5.55;1.70;;;18.70;99.90;;;;;;5092882;28;20047;-67
2022/05/21 11:26:51;;;;;;;4.90;1.30;;;18.90;99.90;;;;;;5063716;28;20051;-67
2022/05/21 11:29:34;;;;;;;4.97;1.20;;;18.90;99.90;;;;;;5093856;28;20050;-67
2022/05/21 11:37:53;;;;;;;5.40;1.23;;;18.90;99.90;;;;;;5094059;28;20044;-67
2022/05/21 11:40:49;;;;;;;6.13;1.15;;;18.90;99.90;;;;;;5093495;28;20502;-67
2022/05/21 11:43:16;;;;;;;5.82;1.48;;;18.80;99.90;;;;;;5093851;28;20044;-67
2022/05/21 11:46:04;;;;;;;5.60;1.10;;;18.70;99.90;;;;;;5093860;28;20036;-67
2022/05/21 11:48:30;;;;;;;6.43;1.30;;;18.70;99.90;;;;;;5093529;28;20113;-67
2022/05/21 11:51:34;;;;;;;5.78;1.30;;;18.50;99.90;;;;;;5075251;28;20122;-67
2022/05/21 11:53:59;;;;;;;6.88;1.13;;;18.50;99.90;;;;;;5030860;28;20120;-67
2022/05/21 11:57:01;;;;;;;5.70;1.50;;;18.50;99.90;;;;;;5081774;28;20572;-68
2022/05/21 11:59:50;;;;;;;8.35;1.73;;;18.40;99.90;;;;;;5092840;28;20050;-68
2022/05/21 12:02:24;;;;;;;8.30;1.70;;;18.40;99.90;;;;;;5093572;28;20176;-67
2022/05/21 12:05:12;;;;;;;7.90;1.50;;;18.50;99.90;;;;;;5093442;28;20036;-67
2022/05/21 12:07:40;;;;;;;8.40;1.60;;;18.50;99.90;;;;;;5092804;28;20101;-68
2022/05/21 12:10:18;;;;;;;6.28;1.52;;;18.60;99.90;;;;;;5093164;28;20036;-67
2022/05/21 12:13:02;;;;;;;6.05;1.73;;;18.70;99.90;;;;;;5093288;28;20048;-67
2022/05/21 12:15:45;;;;;;;8.88;1.65;;;18.70;99.90;;;;;;5093168;28;20481;-67
2022/05/21 12:18:25;;;;;;;4.38;1.30;;;18.70;99.90;;;;;;5093065;28;20033;-67
2022/05/21 12:20:52;;;;;;;6.25;1.58;;;18.80;99.90;;;;;;5093165;28;20048;-67
2022/05/21 12:23:29;;;;;;;6.63;1.40;;;18.90;99.90;;;;;;5093282;28;20501;-67
2022/05/21 12:26:06;;;;;;;8.25;1.60;;;19.00;99.90;;;;;;5092178;28;20040;-67
2022/05/21 12:28:37;;;;;;;5.13;1.48;;;19.00;99.90;;;;;;5092554;28;20039;-67
2022/05/21 12:31:13;;;;;;;6.15;1.63;;;19.00;99.90;;;;;;5092967;28;20048;-68
2022/05/21 12:34:11;;;;;;;5.30;1.35;;;19.20;99.90;;;;;;5092759;28;20036;-67
2022/05/21 12:36:47;;;;;;;7.00;1.20;;;19.30;99.90;;;;;;5087064;28;20079;-68
2022/05/21 12:39:16;;;;;;;5.40;1.33;;;19.50;99.90;;;;;;5092627;28;20076;-67
2022/05/21 12:41:49;;;;;;;9.18;1.45;;;19.40;99.90;;;;;;5091338;28;20044;-67
2022/05/21 12:44:34;;;;;;;6.63;1.60;;;19.30;99.90;;;;;;5092697;28;20040;-67
2022/05/21 12:47:00;;;;;;;5.90;1.52;;;19.20;99.90;;;;;;5092623;28;20078;-67
2022/05/21 12:49:26;;;;;;;6.20;1.38;;;19.30;99.90;;;;;;5091984;28;20036;-67
2022/05/21 12:51:52;;;;;;;7.25;1.48;;;19.40;99.90;;;;;;5092561;28;20104;-67
2022/05/21 12:54:20;;;;;;;8.63;1.40;;;19.40;99.90;;;;;;5092547;28;20081;-67
2022/05/21 12:56:47;;;;;;;8.45;1.67;;;19.20;99.90;;;;;;5092457;28;20122;-67
2022/05/21 12:59:24;;;;;;;6.80;1.70;;;19.30;99.90;;;;;;5091886;28;20093;-68
2022/05/21 13:02:17;;;;;;;4.93;1.30;;;19.40;99.90;;;;;;5092205;28;20043;-67
2022/05/21 13:04:48;;;;;;;6.78;1.38;;;19.40;99.90;;;;;;5092476;28;20042;-67
2022/05/21 13:07:28;;;;;;;6.25;1.38;;;19.40;99.90;;;;;;5092406;28;20111;-67
2022/05/21 13:10:14;;;;;;;6.38;1.40;;;19.20;99.90;;;;;;5091790;28;20036;-67
2022/05/21 13:12:44;;;;;;;9.43;1.27;;;19.40;99.90;;;;;;5092219;28;20036;-68
2022/05/21 13:15:12;;;;;;;5.55;1.60;;;19.50;99.90;;;;;;5092195;28;20036;-67
2022/05/21 13:17:53;;;;;;;6.20;1.45;;;19.40;99.90;;;;;;5091977;28;20039;-68
2022/05/21 13:20:33;;;;;;;4.75;1.33;;;19.30;99.90;;;;;;5091628;28;20044;-68
2022/05/21 13:23:17;;;;;;;4.22;1.08;;;19.20;99.90;;;;;;5092023;28;20048;-68
2022/05/21 13:25:50;;;;;;;4.22;1.10;;;19.20;99.90;;;;;;5091697;28;20518;-68
2022/05/21 13:28:19;;;;;;;4.03;1.17;;;19.30;99.90;;;;;;5091900;28;20085;-67